»·PEaware :: N915TB KPHX-KBUR

N915TB :: KPHX-KBUR

FLIGHT INFORMATION

Flight Status: Arrived
Operator: Privately registered:
United States
More flights under this callsign
Pilot: Jake M. (20491)
Aircraft: SOCATA TBM-900
(TBM9)
More flights by this aircraft type
Origin: KPHX Phoenix Sky Harbor Intl
United States
Destination: KBUR Bob Hope-Burbank
United States
More flights between these airports :: More routes between these airports
Route: +AVONA V16 GARNE V370 PDZ V186 DARTS
File this flight plan on PilotEdge
Remarks:
Altitude:
(Current/Filed)
28,000ft
Speed:
(Current/Filed)
300kts
Departed: 22-Aug-20 04:36 PM
Arrived: 22-Aug-20 05:51 PM
Distance/Time
Traveled:
320nm/1:15
Distance/Time
To Go:
Arrived

Flight Plot

Page will automatically refresh every two minutes.

Flight plan parsing failed; only flown route is shown


Map Options




Map Legend


Flown Route
Filed Route
Departure Airport
Arrival Airport
Navaid (VOR, NDB)
Fix

Horizontal Profiles

Position Reports

Time Latitude Longitude Heading Altitude Ground
Speed
22-Aug-20 16:22 33.426804 -112.024002 88 1110ft 0kts
22-Aug-20 16:23 33.426804 -112.024002 88 1110ft 0kts
22-Aug-20 16:24 33.426804 -112.024002 88 1110ft 0kts
22-Aug-20 16:25 33.426804 -112.024002 88 1110ft 0kts
22-Aug-20 16:26 33.426804 -112.024002 88 1110ft 0kts
22-Aug-20 16:27 33.426804 -112.024002 88 1110ft 0kts
22-Aug-20 16:28 33.426804 -112.024002 88 1110ft 0kts
22-Aug-20 16:29 33.427000 -112.023859 351 1111ft 3kts
22-Aug-20 16:30 33.427759 -112.022027 89 1112ft 15kts
22-Aug-20 16:31 33.427743 -112.014157 89 1115ft 24kts
22-Aug-20 16:32 33.427741 -112.007417 89 1117ft 16kts
22-Aug-20 16:33 33.427978 -112.005351 26 1116ft 0kts
22-Aug-20 16:34 33.428206 -112.005284 3 1116ft 7kts
22-Aug-20 16:35 33.428606 -112.027054 265 1612ft 118kts
22-Aug-20 16:36 33.412243 -112.064549 240 3272ft 140kts
22-Aug-20 16:37 33.395661 -112.107290 281 5299ft 144kts
22-Aug-20 16:38 33.406368 -112.154838 281 7230ft 147kts
22-Aug-20 16:39 33.416925 -112.204809 282 9252ft 154kts
22-Aug-20 16:40 33.428165 -112.258354 282 11335ft 169kts
22-Aug-20 16:41 33.440379 -112.316804 282 13298ft 178kts
22-Aug-20 16:42 33.443540 -112.379867 269 15151ft 194kts
22-Aug-20 16:43 33.445158 -112.447299 269 17079ft 200kts
22-Aug-20 16:44 33.446782 -112.517055 269 18849ft 205kts
22-Aug-20 16:45 33.448394 -112.588058 269 20629ft 208kts
22-Aug-20 16:46 33.450145 -112.667480 269 21626ft 243kts
22-Aug-20 16:47 33.451933 -112.750831 269 23244ft 244kts
22-Aug-20 16:48 33.454160 -112.833702 273 24637ft 249kts
22-Aug-20 16:49 33.461091 -112.918680 274 25983ft 251kts
22-Aug-20 16:50 33.468020 -113.004758 274 27182ft 254kts
22-Aug-20 16:51 33.475001 -113.092349 274 27857ft 271kts
22-Aug-20 16:52 33.482649 -113.189168 274 27852ft 295kts
22-Aug-20 16:53 33.490590 -113.290776 274 27849ft 305kts
22-Aug-20 16:54 33.498635 -113.394800 274 27849ft 308kts
22-Aug-20 16:55 33.506664 -113.499708 274 27851ft 310kts
22-Aug-20 16:56 33.514589 -113.604580 274 27851ft 310kts
22-Aug-20 16:57 33.522434 -113.709534 273 27854ft 310kts
22-Aug-20 16:58 33.530208 -113.814709 273 27855ft 310kts
22-Aug-20 16:59 33.537886 -113.919810 273 27857ft 311kts
22-Aug-20 17:00 33.545482 -114.024975 273 27858ft 313kts
22-Aug-20 17:01 33.553043 -114.131214 273 27836ft 315kts
22-Aug-20 17:02 33.560513 -114.237320 273 27812ft 316kts
22-Aug-20 17:03 33.567952 -114.344312 273 27806ft 316kts
22-Aug-20 17:04 33.575228 -114.450180 273 27804ft 316kts
22-Aug-20 17:05 33.582457 -114.556860 273 27802ft 315kts
22-Aug-20 17:06 33.589621 -114.663685 272 27801ft 314kts
22-Aug-20 17:07 33.597605 -114.769148 279 27792ft 315kts
22-Aug-20 17:08 33.615339 -114.873987 279 27798ft 315kts
22-Aug-20 17:09 33.633167 -114.978801 279 27800ft 315kts
22-Aug-20 17:10 33.650856 -115.083461 279 27811ft 315kts
22-Aug-20 17:11 33.668407 -115.187791 279 27823ft 314kts
22-Aug-20 17:12 33.685878 -115.292250 279 27826ft 315kts
22-Aug-20 17:13 33.703258 -115.396664 279 27515ft 323kts
22-Aug-20 17:14 33.721534 -115.507303 279 26038ft 344kts
22-Aug-20 17:16 33.740566 -115.623005 279 24481ft 354kts
22-Aug-20 17:17 33.759765 -115.740350 278 23820ft 335kts
22-Aug-20 17:18 33.777600 -115.850111 278 23824ft 321kts
22-Aug-20 17:19 33.794661 -115.955741 278 23826ft 316kts
22-Aug-20 17:20 33.811358 -116.059711 278 23831ft 315kts
22-Aug-20 17:21 33.828033 -116.164141 278 23753ft 317kts
22-Aug-20 17:22 33.845308 -116.273103 278 22507ft 340kts
22-Aug-20 17:23 33.863296 -116.387077 278 21023ft 347kts
22-Aug-20 17:24 33.873559 -116.503141 271 19514ft 344kts
22-Aug-20 17:25 33.879013 -116.618673 271 18010ft 341kts
22-Aug-20 17:26 33.884295 -116.732737 271 16511ft 340kts
22-Aug-20 17:27 33.889351 -116.844078 271 15192ft 324kts
22-Aug-20 17:28 33.894187 -116.952464 271 14136ft 314kts
22-Aug-20 17:29 33.898652 -117.054285 271 14136ft 294kts
22-Aug-20 17:30 33.914230 -117.155353 284 12948ft 317kts
22-Aug-20 17:31 33.937302 -117.259519 284 11452ft 321kts
22-Aug-20 17:32 33.960086 -117.362689 284 9945ft 309kts
22-Aug-20 17:33 33.981649 -117.460812 284 8440ft 298kts
22-Aug-20 17:33 33.999287 -117.541398 284 7182ft 295kts
22-Aug-20 17:35 34.023173 -117.650909 283 5990ft 269kts
22-Aug-20 17:36 34.041710 -117.736190 283 5998ft 250kts
22-Aug-20 17:36 34.055468 -117.799818 283 6006ft 233kts
22-Aug-20 17:37 34.072163 -117.877141 283 6014ft 234kts
22-Aug-20 17:39 34.091916 -117.968950 283 6002ft 241kts
22-Aug-20 17:39 34.106139 -118.035273 283 5990ft 242kts
22-Aug-20 17:40 34.123150 -118.114888 284 5982ft 240kts
22-Aug-20 17:41 34.139869 -118.193372 283 5989ft 238kts
22-Aug-20 17:42 34.156652 -118.272002 283 5994ft 238kts
22-Aug-20 17:43 34.160158 -118.353258 272 5999ft 238kts
22-Aug-20 17:44 34.163241 -118.437251 272 5211ft 243kts
22-Aug-20 17:45 34.167022 -118.523946 272 3761ft 255kts
22-Aug-20 17:46 34.204389 -118.566905 49 2947ft 198kts
22-Aug-20 17:47 34.200760 -118.508102 99 2839ft 175kts
22-Aug-20 17:48 34.198996 -118.447552 93 2088ft 177kts
22-Aug-20 17:49 34.198365 -118.394235 96 1248ft 126kts
22-Aug-20 17:50 34.197853 -118.360343 52 780ft 13kts
22-Aug-20 17:51 34.198886 -118.361065 268 780ft 11kts
22-Aug-20 17:52 34.200106 -118.364483 8 780ft 10kts

Navigation Log

Ident Type
Flight plan parsing failed, navigation log unavailable